If you wish to contribute or participate in the discussions about articles you are invited to join SKYbrary as a registered user

 Actions

Adelaide International Airport

From SKYbrary Wiki

YPAD
Airport
ICAO: YPAD – IATA: ADL
Summary
Name Adelaide International Airport
Region Asia and Pacific
Territory Christmas Island CX.gif
Location , South Australia
Serving Adelaide
Elevation 6.096 m <br />20 ft <br />20 ft6.096 m <br />
Type medium airport
Coordinates 34° 56' 42.00" S, 138° 31' 50.00" E
Runways
Designator Length Width Surface ROPS
5/23 3100 m10,170.604 ft <br /> 45 m147.638 ft <br /> ASP yes/yes
12/30 1652 m5,419.948 ft <br /> 45 m147.638 ft <br /> ASP yes/yes


METAR
Observation YPAD 240930Z 17012KT CAVOK 18/04 Q1016
Station Adelaide Airport
Date/Time 24 February 2021 09:30:00
Wind direction 170°
Wind speed 12 kts
Lowest cloud amount clouds and visibility OK
Temperature 18°C
Dew point 4°C
Humidity 39%
QNH 1016 hPa
Weather condition n/a